Agat, Guam
Current Conditions -  °F | °C
As of 7:54 PM on Tuesday 21 Oct 2014 (Local Time) from PGUM Reporting Station
Clear Clear  
Wind Chill: 81°   Ceiling: Unl
Heat Index: 87°   Visibility: 10mi
Dew Point: 75°   Wind: 3mph
Humidity: 82%   Direction: 50°NE
Pressure: 29.84"   Gusts: NA
Location:  13.38°N, 144.65°E
Report Text: PGUM 210954Z 05003KT 10SM CLR 27/24 A2984 RMK AO2 SLP098 T02720239
Loading
Personal Weather Stations






























Interactive Weather Map
Tropical Storm Tracking
New forecast layout! Learn more

10-Day Weather Forecast

Advertisements
Track Severe Weather on mobile